No data was retrieved for https://query.yahooapis.com/v1/public/yql?q=select+%2A+from+weather.forecast+where+woeid%3D731260&format=xml&u=c



METAR rapporten vliegvelden

   
EHAM - Amsterdam
Gewijzigd: 24-05-2019 17:55
Helder  
Helder  
   Wind: NNW 22.2 km/h
Wind: NNW 22.2 km/h
Temperatuur: 17°C
Dauwpunt: 4°C
Vochtigheid: 42%
Barometer: 1015 hPa
Zicht: meer dan 10 km
Bewolking: Helder
EHAM 241555Z 33012KT 300V010 CAVOK 17/04 Q1015 NOSIG
EHBK - Maastricht
Gewijzigd: 24-05-2019 17:55
Gedeeltelijk bewolkt  
Gedeeltelijk bewolkt  
   Wind: WZW 13 km/h
Wind: WZW 13 km/h
Temperatuur: 23°C
Dauwpunt: 8°C
Vochtigheid: 38%
Barometer: 1014 hPa
Bewolking: Gedeeltelijk bewolkt
Zicht: meer dan 10 km
Bewolking: Gedeeltelijk bewolkt
EHBK 241555Z AUTO 25007KT 190V320 9999 NSC 23/08 Q1014 NOSIG
ELLX - Luxemburg
Gewijzigd: 24-05-2019 17:50
Helder  
Helder  
   Wind: WNW 13 km/h
Wind: WNW 13 km/h
Temperatuur: 22°C
Dauwpunt: 6°C
Vochtigheid: 36%
Barometer: 1014 hPa
Zicht: meer dan 10 km
Bewolking: Helder
ELLX 241550Z 29007KT 240V330 CAVOK 22/06 Q1014 NOSIG
EDDL - Dusseldorf
Gewijzigd: 24-05-2019 17:50
Gedeeltelijk bewolkt  
Gedeeltelijk bewolkt  
   Wind: Westen 14.8 km/h
Wind: Westen 14.8 km/h
Temperatuur: 23°C
Dauwpunt: 10°C
Vochtigheid: 44%
Barometer: 1013 hPa
Bewolking: Gedeeltelijk bewolkt
Zicht: meer dan 10 km
Bewolking: Gedeeltelijk bewolkt 6000 ft
EDDL 241550Z 27008KT 230V350 9999 SCT060TCU 23/10 Q1013 NOSIG
  

Script ontwikkeld door  Saratoga-weather.org Aangepast voor de template door  Weerstation Leuven